createdAt,value
2019-05-10T00:01:12.947Z,10.90
2019-05-10T00:04:01.492Z,10.99
2019-05-10T00:06:50.479Z,11.03
2019-05-10T00:09:20.575Z,10.87
2019-05-10T00:12:02.749Z,10.97
2019-05-10T00:14:46.318Z,10.83
2019-05-10T00:17:21.295Z,10.85
2019-05-10T00:19:52.734Z,10.99
2019-05-10T00:22:23.946Z,10.83
2019-05-10T00:25:04.004Z,10.87
2019-05-10T00:27:27.937Z,10.81
2019-05-10T00:29:59.116Z,10.70
2019-05-10T00:32:30.234Z,10.70
2019-05-10T00:35:01.500Z,10.66
2019-05-10T00:37:32.649Z,10.66
2019-05-10T00:40:04.389Z,10.70
2019-05-10T00:42:35.506Z,10.76
2019-05-10T00:45:08.003Z,10.83
2019-05-10T00:47:39.204Z,10.71
2019-05-10T00:50:10.795Z,10.67
2019-05-10T00:52:41.918Z,10.72
2019-05-10T00:55:18.789Z,10.74
2019-05-10T00:57:48.264Z,10.85
2019-05-10T01:00:20.389Z,10.92
2019-05-10T01:02:51.722Z,10.96
2019-05-10T01:05:23.212Z,10.90
2019-05-10T01:07:54.496Z,10.88
2019-05-10T01:10:26.067Z,10.77
2019-05-10T01:12:57.467Z,10.85
2019-05-10T01:15:28.761Z,10.84
2019-05-10T01:17:59.842Z,10.86
2019-05-10T01:20:31.035Z,10.84
2019-05-10T01:23:02.545Z,10.77
2019-05-10T01:25:35.811Z,10.79
2019-05-10T01:28:07.124Z,10.77
2019-05-10T01:30:38.653Z,10.75
2019-05-10T01:33:09.821Z,10.77
2019-05-10T01:35:41.279Z,10.76
2019-05-10T01:38:13.628Z,10.79
2019-05-10T01:40:44.896Z,10.84
2019-05-10T01:43:16.113Z,10.83
2019-05-10T01:45:47.324Z,10.77
2019-05-10T01:48:18.521Z,10.76
2019-05-10T01:50:49.654Z,10.86
2019-05-10T01:53:20.805Z,10.79
2019-05-10T01:55:52.916Z,10.69
2019-05-10T01:58:25.265Z,10.72
2019-05-10T02:00:56.891Z,10.79
2019-05-10T02:03:28.147Z,10.87
2019-05-10T02:05:59.461Z,10.86
2019-05-10T02:08:30.752Z,10.91
2019-05-10T02:11:02.282Z,10.89
2019-05-10T02:13:33.817Z,10.95
2019-05-10T02:16:05.214Z,11.03
2019-05-10T02:18:36.654Z,10.99
2019-05-10T02:21:08.092Z,10.96
2019-05-10T02:23:39.417Z,11.00
2019-05-10T02:26:11.789Z,10.95
2019-05-10T02:28:43.048Z,10.74
2019-05-10T02:31:14.471Z,10.83
2019-05-10T02:33:45.881Z,10.88
2019-05-10T02:36:17.272Z,10.72
2019-05-10T02:38:48.616Z,10.69
2019-05-10T02:41:20.244Z,10.79
2019-05-10T02:43:51.306Z,10.85
2019-05-10T02:46:22.865Z,10.75
2019-05-10T02:48:54.349Z,10.75
2019-05-10T02:51:25.986Z,10.59
2019-05-10T02:53:57.459Z,10.60
2019-05-10T02:56:31.845Z,10.61
2019-05-10T02:59:04.144Z,10.67
2019-05-10T03:01:37.421Z,10.60
2019-05-10T03:04:10.520Z,10.53
2019-05-10T03:06:44.258Z,10.43
2019-05-10T03:09:15.778Z,10.42
2019-05-10T03:11:49.372Z,10.36
2019-05-10T03:14:20.861Z,10.46
2019-05-10T03:16:53.039Z,10.54
2019-05-10T03:19:24.290Z,10.52
2019-05-10T03:22:06.798Z,10.62
2019-05-10T03:24:38.012Z,10.63
2019-05-10T03:27:09.194Z,10.46
2019-05-10T03:29:40.696Z,10.53
2019-05-10T03:32:11.993Z,10.44
2019-05-10T03:34:43.219Z,10.56
2019-05-10T03:37:14.727Z,10.63
2019-05-10T03:39:46.226Z,10.62
2019-05-10T03:42:17.846Z,10.67
2019-05-10T03:44:49.275Z,10.72
2019-05-10T03:47:20.834Z,10.77
2019-05-10T03:49:52.151Z,10.78
2019-05-10T03:52:23.317Z,10.76
2019-05-10T03:54:54.465Z,10.70
2019-05-10T03:57:25.641Z,10.72
2019-05-10T03:59:56.769Z,10.71
2019-05-10T04:02:28.427Z,10.85
2019-05-10T04:04:59.969Z,10.95
2019-05-10T04:07:31.408Z,10.97
2019-05-10T04:10:02.677Z,11.10
2019-05-10T04:12:34.023Z,11.12
2019-05-10T04:15:06.140Z,11.20
2019-05-10T04:17:37.297Z,11.34
2019-05-10T04:20:09.263Z,11.44
2019-05-10T04:22:40.476Z,11.57
2019-05-10T04:25:11.476Z,11.65
2019-05-10T04:27:42.267Z,11.85
2019-05-10T04:30:13.740Z,11.84
2019-05-10T04:32:44.510Z,11.81
2019-05-10T04:35:15.837Z,11.66
2019-05-10T04:37:47.006Z,11.56
2019-05-10T04:40:18.565Z,11.44
2019-05-10T04:42:50.788Z,11.29
2019-05-10T04:45:22.047Z,11.10
2019-05-10T04:47:53.296Z,10.90
2019-05-10T04:50:24.469Z,10.86
2019-05-10T04:52:55.610Z,10.67
2019-05-10T04:55:26.832Z,10.59
2019-05-10T04:57:57.995Z,10.49
2019-05-10T05:00:29.331Z,10.55
2019-05-10T05:03:00.458Z,10.52
2019-05-10T05:05:31.694Z,10.47
2019-05-10T05:08:06.279Z,10.40
2019-05-10T05:10:36.821Z,10.34
2019-05-10T05:13:08.214Z,10.26
2019-05-10T05:15:39.924Z,10.17
2019-05-10T05:18:11.407Z,10.22
2019-05-10T05:20:43.131Z,10.15
2019-05-10T05:23:14.297Z,10.16
2019-05-10T05:25:45.806Z,10.47
2019-05-10T05:28:18.370Z,10.75
2019-05-10T05:30:50.821Z,10.75
2019-05-10T05:33:22.173Z,11.45
2019-05-10T05:35:53.300Z,12.12
2019-05-10T05:38:24.221Z,12.75
2019-05-10T05:40:55.232Z,13.21
2019-05-10T05:43:26.250Z,13.89
2019-05-10T05:45:57.087Z,14.32
2019-05-10T05:48:39.778Z,14.53
2019-05-10T05:51:01.014Z,14.07
2019-05-10T05:53:36.021Z,13.87
2019-05-10T05:56:12.531Z,13.64
2019-05-10T05:58:44.282Z,13.71
2019-05-10T06:01:10.868Z,13.58
2019-05-10T06:03:42.055Z,13.70
2019-05-10T06:06:21.785Z,14.34
2019-05-10T06:08:46.253Z,14.71
2019-05-10T06:11:17.372Z,14.39
2019-05-10T06:13:48.631Z,14.01
2019-05-10T06:16:22.242Z,13.77
2019-05-10T06:18:52.847Z,13.73
2019-05-10T06:21:26.562Z,13.59
2019-05-10T06:23:59.413Z,13.44
2019-05-10T06:26:29.642Z,13.56
2019-05-10T06:29:04.305Z,13.56
2019-05-10T06:31:33.952Z,13.37
2019-05-10T06:34:05.249Z,13.23
2019-05-10T06:36:36.507Z,13.17
2019-05-10T06:39:08.474Z,13.12
2019-05-10T06:41:39.766Z,13.05
2019-05-10T06:44:11.058Z,12.87
2019-05-10T06:46:42.239Z,12.82
2019-05-10T06:49:13.165Z,12.71
2019-05-10T06:51:49.102Z,12.66
2019-05-10T06:54:17.107Z,12.55
2019-05-10T06:56:48.200Z,12.41
2019-05-10T06:59:24.272Z,12.35
2019-05-10T07:01:52.275Z,12.45
2019-05-10T07:04:23.481Z,12.26
2019-05-10T07:06:54.552Z,12.08
2019-05-10T07:09:25.808Z,12.12
2019-05-10T07:11:57.166Z,12.21
2019-05-10T07:14:28.495Z,12.69
2019-05-10T07:17:02.612Z,12.87
2019-05-10T07:19:34.852Z,13.13
2019-05-10T07:22:06.422Z,13.36
2019-05-10T07:24:37.721Z,13.47
2019-05-10T07:27:08.950Z,13.61
2019-05-10T07:29:43.405Z,13.45
2019-05-10T07:32:16.306Z,13.35
2019-05-10T07:34:48.157Z,13.45
2019-05-10T07:37:19.170Z,13.42
2019-05-10T07:39:50.499Z,13.35
2019-05-10T07:42:21.494Z,13.28
2019-05-10T07:44:52.556Z,13.25
2019-05-10T07:47:29.884Z,13.23
2019-05-10T07:49:56.811Z,13.06
2019-05-10T07:52:27.958Z,12.96
2019-05-10T07:54:59.095Z,13.01
2019-05-10T07:57:30.414Z,13.04
2019-05-10T08:00:03.607Z,13.04
2019-05-10T08:02:34.406Z,13.12
2019-05-10T08:05:10.774Z,13.21
2019-05-10T08:07:39.095Z,13.05
2019-05-10T08:10:10.487Z,13.04
2019-05-10T08:12:45.633Z,13.45
2019-05-10T08:15:15.188Z,13.82
2019-05-10T08:17:50.650Z,14.19
2019-05-10T08:20:30.680Z,14.44
2019-05-10T08:22:52.679Z,14.74
2019-05-10T08:25:29.194Z,14.53
2019-05-10T08:27:56.654Z,14.60
2019-05-10T08:30:52.229Z,14.41
2019-05-10T08:33:17.715Z,14.60
2019-05-10T08:35:52.525Z,14.47
2019-05-10T08:38:21.991Z,14.67
2019-05-10T08:40:53.082Z,15.23
2019-05-10T08:43:24.547Z,15.65
2019-05-10T08:45:58.022Z,15.38
2019-05-10T08:48:29.062Z,15.38
2019-05-10T08:51:04.037Z,15.49
2019-05-10T08:53:33.041Z,15.72
2019-05-10T08:56:07.577Z,15.78
2019-05-10T08:58:37.469Z,16.18
2019-05-10T09:01:19.026Z,16.39
2019-05-10T09:03:47.208Z,16.53
2019-05-10T09:06:16.955Z,17.30
2019-05-10T09:08:52.938Z,17.12
2019-05-10T09:11:23.136Z,17.37
2019-05-10T09:13:57.605Z,17.12
2019-05-10T09:16:29.120Z,17.12
2019-05-10T09:19:02.408Z,17.59
2019-05-10T09:21:32.998Z,17.84
2019-05-10T09:24:06.569Z,18.11
2019-05-10T09:26:37.282Z,17.81
2019-05-10T09:29:08.548Z,17.93
2019-05-10T09:31:44.903Z,18.41
2019-05-10T09:34:12.341Z,18.01
2019-05-10T09:36:46.873Z,17.19
2019-05-10T09:39:21.465Z,17.02
2019-05-10T09:41:49.275Z,16.97
2019-05-10T09:44:22.771Z,16.93
2019-05-10T09:46:53.361Z,16.86
2019-05-10T09:49:24.527Z,16.90
2019-05-10T09:51:55.773Z,16.74
2019-05-10T09:54:29.605Z,16.75
2019-05-10T09:56:59.543Z,16.42
2019-05-10T09:59:30.450Z,16.62
2019-05-10T10:02:05.081Z,16.63
2019-05-10T10:04:34.371Z,16.32
2019-05-10T10:07:05.178Z,16.31
2019-05-10T10:09:42.398Z,16.10
2019-05-10T10:12:08.737Z,16.15
2019-05-10T10:14:43.243Z,16.19
2019-05-10T10:17:12.590Z,16.28
2019-05-10T10:19:43.431Z,16.55
2019-05-10T10:22:14.697Z,16.92
2019-05-10T10:24:48.905Z,17.22
2019-05-10T10:27:18.760Z,17.14
2019-05-10T10:29:49.797Z,17.12
2019-05-10T10:32:24.649Z,16.72
2019-05-10T10:34:57.613Z,16.72
2019-05-10T10:37:31.210Z,16.52
2019-05-10T10:40:05.352Z,16.19
2019-05-10T10:42:34.588Z,15.99
2019-05-10T10:45:07.370Z,16.20
2019-05-10T10:47:38.678Z,16.69
2019-05-10T10:50:13.464Z,17.34
2019-05-10T10:52:43.757Z,17.36
2019-05-10T10:55:14.856Z,17.09
2019-05-10T10:57:48.030Z,17.14
2019-05-10T11:00:24.317Z,17.50
2019-05-10T11:02:55.273Z,17.99
2019-05-10T11:05:26.356Z,17.60
2019-05-10T11:07:57.347Z,17.45
2019-05-10T11:10:32.131Z,17.12
2019-05-10T11:13:11.871Z,16.84
2019-05-10T11:15:36.620Z,16.40
2019-05-10T11:18:07.666Z,15.97
2019-05-10T11:20:41.894Z,15.94
2019-05-10T11:23:11.541Z,16.27
2019-05-10T11:25:50.412Z,17.32
2019-05-10T11:28:16.374Z,17.32
2019-05-10T11:30:50.973Z,17.49
2019-05-10T11:33:29.088Z,17.68
2019-05-10T11:35:57.622Z,17.27
2019-05-10T11:38:27.704Z,17.23
2019-05-10T11:40:58.527Z,16.92
2019-05-10T11:43:31.193Z,16.84
2019-05-10T11:46:01.927Z,17.07
2019-05-10T11:48:37.263Z,16.89
2019-05-10T11:51:11.270Z,16.79
2019-05-10T11:53:41.203Z,16.97
2019-05-10T11:58:50.448Z,16.74
2019-05-10T11:59:03.906Z,16.74
2019-05-10T12:01:19.431Z,16.81
2019-05-10T12:03:49.853Z,16.81
2019-05-10T12:06:22.146Z,16.80
2019-05-10T12:11:33.218Z,16.78
2019-05-10T12:14:02.140Z,16.79
2019-05-10T12:16:33.410Z,16.71
2019-05-10T12:19:15.645Z,16.65
2019-05-10T12:21:37.385Z,16.73
2019-05-10T12:24:26.063Z,16.92
2019-05-10T12:26:50.396Z,16.83
2019-05-10T12:27:12.851Z,17.02
2019-05-10T12:29:17.230Z,16.72
2019-05-10T12:31:47.505Z,16.67
2019-05-10T12:34:20.715Z,16.57
2019-05-10T12:36:52.141Z,16.57
2019-05-10T12:39:23.077Z,16.86
2019-05-10T12:41:54.006Z,16.84
2019-05-10T12:44:24.945Z,17.14
2019-05-10T12:46:55.749Z,17.45
2019-05-10T12:49:26.868Z,17.82
2019-05-10T12:51:57.834Z,18.18
2019-05-10T12:54:29.006Z,17.97
2019-05-10T12:57:00.044Z,17.70
2019-05-10T12:59:34.889Z,17.33
2019-05-10T13:02:09.919Z,16.94
2019-05-10T13:04:40.591Z,16.91
2019-05-10T13:07:09.333Z,16.82
2019-05-10T13:09:41.116Z,16.85
2019-05-10T13:12:12.192Z,16.59
2019-05-10T13:14:46.501Z,16.44
2019-05-10T13:17:17.141Z,16.38
2019-05-10T13:19:52.818Z,16.38
2019-05-10T13:22:21.165Z,16.64
2019-05-10T13:24:52.497Z,16.64
2019-05-10T13:27:23.677Z,16.79
2019-05-10T13:29:54.571Z,16.90
2019-05-10T13:32:25.337Z,16.96
2019-05-10T13:34:56.472Z,17.11
2019-05-10T13:37:27.518Z,17.10
2019-05-10T13:40:05.081Z,16.92
2019-05-10T13:42:36.472Z,16.86
2019-05-10T13:45:04.838Z,16.89
2019-05-10T13:47:35.899Z,16.92
2019-05-10T13:50:07.152Z,17.24
2019-05-10T13:52:40.982Z,17.24
2019-05-10T13:55:11.254Z,17.51
2019-05-10T13:57:42.158Z,17.41
2019-05-10T14:00:13.647Z,17.45
2019-05-10T14:02:44.707Z,17.57
2019-05-10T14:05:17.706Z,17.27
2019-05-10T14:07:52.308Z,17.09
2019-05-10T14:10:23.218Z,17.26
2019-05-10T14:12:56.205Z,17.06
2019-05-10T14:15:27.370Z,17.23
2019-05-10T14:17:58.378Z,17.00
2019-05-10T14:20:29.324Z,17.05
2019-05-10T14:23:00.237Z,17.16
2019-05-10T14:25:36.112Z,17.19
2019-05-10T14:28:09.806Z,17.15
2019-05-10T14:30:37.074Z,17.15
2019-05-10T14:33:13.976Z,17.05
2019-05-10T14:35:41.187Z,17.11
2019-05-10T14:38:13.080Z,17.11
2019-05-10T14:40:44.421Z,17.31
2019-05-10T14:43:15.556Z,17.32
2019-05-10T14:45:46.464Z,17.45
2019-05-10T14:48:27.656Z,17.43
2019-05-10T14:50:50.363Z,17.35
2019-05-10T14:53:25.568Z,17.28
2019-05-10T14:55:54.201Z,17.08
2019-05-10T14:58:25.377Z,17.04
2019-05-10T15:00:56.270Z,17.03
2019-05-10T15:03:27.057Z,17.14
2019-05-10T15:06:01.594Z,17.34
2019-05-10T15:08:30.583Z,17.46
2019-05-10T15:11:01.851Z,17.14
2019-05-10T15:13:35.245Z,17.18
2019-05-10T15:16:09.638Z,17.35
2019-05-10T15:18:38.051Z,17.26
2019-05-10T15:21:09.230Z,17.17
2019-05-10T15:23:40.303Z,17.07
2019-05-10T15:26:12.224Z,17.13
2019-05-10T15:28:43.421Z,17.13
2019-05-10T15:31:14.540Z,17.10
2019-05-10T15:33:45.627Z,16.99
2019-05-10T15:36:16.659Z,16.98
2019-05-10T15:38:51.949Z,17.16
2019-05-10T15:41:22.500Z,17.16
2019-05-10T15:43:53.848Z,17.24
2019-05-10T15:46:35.354Z,17.06
2019-05-10T15:48:58.802Z,17.21
2019-05-10T15:51:36.360Z,17.19
2019-05-10T15:54:04.922Z,16.95
2019-05-10T15:56:40.738Z,16.97
2019-05-10T15:59:12.919Z,16.97
2019-05-10T16:01:45.398Z,16.98
2019-05-10T16:04:14.945Z,16.89
2019-05-10T16:06:47.082Z,16.77
2019-05-10T16:09:19.348Z,16.64
2019-05-10T16:11:55.569Z,16.69
2019-05-10T16:14:23.429Z,16.77
2019-05-10T16:16:55.429Z,16.44
2019-05-10T16:19:26.639Z,16.46
2019-05-10T16:21:58.259Z,16.52
2019-05-10T16:24:29.132Z,16.42
2019-05-10T16:27:01.840Z,16.42
2019-05-10T16:29:40.180Z,16.25
2019-05-10T16:32:06.029Z,16.10
2019-05-10T16:34:36.834Z,16.11
2019-05-10T16:37:07.841Z,16.24
2019-05-10T16:39:38.888Z,16.27
2019-05-10T16:42:09.999Z,16.32
2019-05-10T16:44:41.126Z,16.37
2019-05-10T16:47:12.138Z,16.37
2019-05-10T16:49:47.619Z,16.30
2019-05-10T16:52:19.535Z,16.26
2019-05-10T16:54:48.561Z,16.20
2019-05-10T16:57:19.900Z,16.14
2019-05-10T16:59:50.991Z,15.90
2019-05-10T17:02:22.064Z,15.77
2019-05-10T17:04:53.067Z,15.70
2019-05-10T17:07:24.352Z,15.69
2019-05-10T17:09:56.324Z,15.60
2019-05-10T17:12:28.982Z,15.35
2019-05-10T17:15:02.783Z,15.35
2019-05-10T17:17:37.046Z,15.38
2019-05-10T17:20:07.347Z,15.38
2019-05-10T17:22:38.218Z,15.39
2019-05-10T17:25:10.306Z,15.26
2019-05-10T17:27:41.260Z,15.26
2019-05-10T17:30:12.362Z,15.24
2019-05-10T17:32:43.231Z,15.10
2019-05-10T17:35:14.586Z,15.20
2019-05-10T17:37:45.429Z,15.24
2019-05-10T17:40:16.945Z,15.13
2019-05-10T17:42:51.241Z,15.11
2019-05-10T17:45:20.878Z,14.98
2019-05-10T17:47:51.717Z,14.91
2019-05-10T17:50:22.631Z,14.86
2019-05-10T17:52:53.848Z,14.86
2019-05-10T17:55:25.558Z,14.86
2019-05-10T17:57:56.728Z,14.65
2019-05-10T18:00:27.608Z,14.49
2019-05-10T18:02:58.717Z,14.49
2019-05-10T18:05:29.955Z,14.46
2019-05-10T18:08:00.869Z,14.44
2019-05-10T18:10:32.222Z,14.44
2019-05-10T18:13:05.070Z,14.40
2019-05-10T18:15:35.848Z,14.45
2019-05-10T18:18:07.086Z,14.44
2019-05-10T18:20:42.007Z,14.37
2019-05-10T18:23:10.530Z,14.32
2019-05-10T18:25:41.645Z,14.26
2019-05-10T18:28:12.606Z,14.36
2019-05-10T18:30:43.645Z,14.35
2019-05-10T18:33:14.849Z,14.37
2019-05-10T18:35:52.713Z,14.38
2019-05-10T18:38:20.519Z,14.37
2019-05-10T18:40:51.515Z,14.34
2019-05-10T18:43:22.579Z,14.33
2019-05-10T18:45:53.387Z,14.44
2019-05-10T18:48:24.356Z,14.60
2019-05-10T18:50:55.328Z,14.55
2019-05-10T18:53:26.161Z,14.67
2019-05-10T18:55:57.064Z,14.53
2019-05-10T18:58:29.021Z,14.57
2019-05-10T19:01:02.395Z,14.57
2019-05-10T19:03:35.371Z,14.58
2019-05-10T19:06:11.002Z,14.44
2019-05-10T19:08:39.073Z,14.43
2019-05-10T19:11:09.936Z,14.44
2019-05-10T19:13:48.200Z,14.50
2019-05-10T19:16:13.340Z,14.57
2019-05-10T19:18:44.175Z,14.48
2019-05-10T19:21:15.152Z,14.26
2019-05-10T19:23:45.957Z,14.32
2019-05-10T19:26:17.674Z,14.35
2019-05-10T19:28:48.567Z,14.13
2019-05-10T19:31:19.467Z,14.22
2019-05-10T19:33:51.254Z,14.25
2019-05-10T19:36:22.159Z,14.12
2019-05-10T19:38:52.952Z,14.17
2019-05-10T19:41:25.698Z,14.18
2019-05-10T19:44:02.669Z,14.16
2019-05-10T19:46:29.979Z,14.21
2019-05-10T19:49:02.010Z,14.29
2019-05-10T19:51:33.225Z,14.28
2019-05-10T19:54:04.261Z,14.24
2019-05-10T19:56:37.072Z,14.26
2019-05-10T19:59:11.662Z,14.23
2019-05-10T20:01:40.502Z,14.21
2019-05-10T20:04:11.899Z,14.18
2019-05-10T20:06:43.081Z,14.23
2019-05-10T20:09:14.171Z,14.23
2019-05-10T20:11:45.158Z,14.20
2019-05-10T20:14:16.244Z,14.16
2019-05-10T20:16:52.608Z,14.06
2019-05-10T20:19:20.840Z,14.02
2019-05-10T20:21:51.919Z,14.04
2019-05-10T20:24:23.065Z,13.87
2019-05-10T20:26:54.097Z,13.91
2019-05-10T20:29:25.004Z,13.93
2019-05-10T20:31:56.040Z,13.93
2019-05-10T20:34:26.850Z,13.92
2019-05-10T20:36:57.881Z,13.96
2019-05-10T20:39:29.142Z,13.87
2019-05-10T20:42:00.203Z,13.82
2019-05-10T20:44:31.167Z,13.79
2019-05-10T20:47:02.384Z,13.70
2019-05-10T20:49:33.327Z,13.60
2019-05-10T20:52:04.212Z,13.57
2019-05-10T20:54:35.332Z,13.56
2019-05-10T20:57:06.619Z,13.57
2019-05-10T20:59:37.525Z,13.53
2019-05-10T21:02:08.679Z,13.52
2019-05-10T21:04:39.807Z,13.40
2019-05-10T21:07:10.921Z,13.45
2019-05-10T21:09:42.032Z,13.52
2019-05-10T21:12:12.968Z,13.45
2019-05-10T21:14:44.576Z,13.56
2019-05-10T21:17:15.444Z,13.50
2019-05-10T21:19:46.452Z,13.57
2019-05-10T21:22:17.398Z,13.68
2019-05-10T21:24:48.177Z,13.84
2019-05-10T21:27:19.183Z,13.85
2019-05-10T21:29:50.024Z,13.95
2019-05-10T21:32:20.832Z,13.95
2019-05-10T21:34:52.740Z,14.05
2019-05-10T21:37:23.855Z,13.92
2019-05-10T21:39:54.723Z,13.93
2019-05-10T21:42:25.788Z,14.03
2019-05-10T21:44:56.632Z,13.95
2019-05-10T21:47:27.622Z,13.81
2019-05-10T21:49:58.608Z,13.78
2019-05-10T21:52:29.678Z,13.80
2019-05-10T21:55:00.521Z,13.89
2019-05-10T21:57:31.378Z,13.99
2019-05-10T22:00:02.214Z,14.04
2019-05-10T22:02:34.804Z,14.06
2019-05-10T22:05:06.803Z,14.07
2019-05-10T22:07:38.039Z,14.07
2019-05-10T22:10:09.239Z,14.11
2019-05-10T22:12:40.163Z,14.14
2019-05-10T22:15:11.198Z,14.04
2019-05-10T22:17:42.473Z,14.06
2019-05-10T22:20:13.535Z,14.02
2019-05-10T22:22:45.624Z,14.07
2019-05-10T22:25:16.850Z,14.14
2019-05-10T22:27:48.012Z,14.10
2019-05-10T22:30:19.220Z,14.01
2019-05-10T22:32:50.373Z,13.93
2019-05-10T22:35:21.423Z,13.98
2019-05-10T22:37:52.593Z,13.94
2019-05-10T22:40:23.469Z,13.70
2019-05-10T22:42:54.217Z,13.70
2019-05-10T22:45:25.287Z,13.76
2019-05-10T22:47:56.573Z,13.74
2019-05-10T22:50:27.785Z,13.68
2019-05-10T22:52:59.035Z,13.50
2019-05-10T22:55:30.152Z,13.52
2019-05-10T22:58:02.291Z,13.50
2019-05-10T23:00:33.186Z,13.42
2019-05-10T23:03:04.407Z,13.39
2019-05-10T23:05:35.451Z,13.32
2019-05-10T23:08:06.834Z,13.27
2019-05-10T23:10:38.042Z,13.31
2019-05-10T23:13:09.183Z,13.35
2019-05-10T23:15:41.085Z,13.32
2019-05-10T23:18:11.976Z,13.14
2019-05-10T23:20:43.242Z,13.22
2019-05-10T23:23:14.314Z,13.06
2019-05-10T23:25:45.607Z,12.96
2019-05-10T23:28:16.739Z,13.02
2019-05-10T23:30:47.944Z,12.95
2019-05-10T23:33:19.617Z,12.88
2019-05-10T23:35:51.169Z,12.83
2019-05-10T23:38:22.559Z,12.95
2019-05-10T23:40:54.080Z,12.91
2019-05-10T23:43:25.628Z,12.89
2019-05-10T23:45:57.081Z,12.93
2019-05-10T23:48:28.803Z,12.98
2019-05-10T23:51:00.063Z,13.05
2019-05-10T23:53:31.366Z,12.95
2019-05-10T23:56:03.779Z,13.07
2019-05-10T23:58:35.223Z,13.13
